ΕΜΥ, Εθνική Μετεωρολογική Υπηρεσία - Δελτία Καιρού, Προγνώσεις

ΑΕΡΟΝΑΥΤΙΛΙΑ

GREEK AIRPORTS CODES

LGKV 231220Z 22005KT 9999 FEW030 17/09 Q1015=

EUROPEAN AIRPORTS CODES

LFPO 231200Z 21012KT 180V240 9999 SCT023 FEW029TCU BKN03708/04 Q0995 TEMPO 21015G25KT SHRA BKN014TCU=